createdAt,value
2023-02-27T00:00:15.787Z,99856.66
2023-02-27T00:01:19.954Z,99862.02
2023-02-27T00:02:24.406Z,99860.22
2023-02-27T00:03:27.147Z,99852.17
2023-02-27T00:04:30.318Z,99856.66
2023-02-27T00:05:33.134Z,99862.02
2023-02-27T00:06:35.896Z,99863.86
2023-02-27T00:07:38.431Z,99865.58
2023-02-27T00:08:41.058Z,99868.27
2023-02-27T00:09:43.969Z,99857.53
2023-02-27T00:10:46.678Z,99867.39
2023-02-27T00:11:49.160Z,99862.02
2023-02-27T00:12:51.822Z,99857.53
2023-02-27T00:13:54.398Z,99863.74
2023-02-27T00:14:57.730Z,99868.27
2023-02-27T00:16:00.468Z,99865.58
2023-02-27T00:17:03.223Z,99867.30
2023-02-27T00:18:07.004Z,99864.70
2023-02-27T00:19:11.118Z,99871.79
2023-02-27T00:20:16.235Z,99871.91
2023-02-27T00:21:18.959Z,99872.75
2023-02-27T00:22:21.733Z,99885.20
2023-02-27T00:23:25.982Z,99885.20
2023-02-27T00:24:29.874Z,99891.45
2023-02-27T00:25:33.513Z,99881.67
2023-02-27T00:26:38.390Z,99876.31
2023-02-27T00:27:41.152Z,99875.44
2023-02-27T00:28:43.761Z,99880.72
2023-02-27T00:29:47.314Z,99875.34
2023-02-27T00:30:49.871Z,99882.41
2023-02-27T00:31:54.443Z,99880.72
2023-02-27T00:32:57.376Z,99876.20
2023-02-27T00:34:00.242Z,99885.84
2023-02-27T00:35:06.825Z,99879.60
2023-02-27T00:36:09.641Z,99879.72
2023-02-27T00:37:12.649Z,99887.77
2023-02-27T00:38:15.154Z,99901.19
2023-02-27T00:39:17.585Z,99903.98
2023-02-27T00:40:20.623Z,99912.03
2023-02-27T00:41:23.036Z,99903.02
2023-02-27T00:42:29.768Z,99905.82
2023-02-27T00:43:32.978Z,99909.34
2023-02-27T00:44:35.979Z,99905.70
2023-02-27T00:45:38.517Z,99908.50
2023-02-27T00:46:41.472Z,99914.83
2023-02-27T00:47:44.258Z,99914.83
2023-02-27T00:48:46.777Z,99912.15
2023-02-27T00:49:49.861Z,99926.52
2023-02-27T00:50:53.648Z,99922.99
2023-02-27T00:51:56.139Z,99932.00
2023-02-27T00:52:59.727Z,99928.36
2023-02-27T00:54:03.263Z,99937.37
2023-02-27T00:55:08.364Z,99934.69
2023-02-27T00:56:11.814Z,99934.80
2023-02-27T00:57:16.072Z,99939.32
2023-02-27T00:58:19.676Z,99937.59
2023-02-27T00:59:23.582Z,99937.59
2023-02-27T01:00:28.501Z,99945.64
2023-02-27T01:01:32.373Z,99939.44
2023-02-27T01:02:35.375Z,99946.61
2023-02-27T01:03:38.580Z,99951.12
2023-02-27T01:04:41.134Z,99944.88
2023-02-27T01:05:44.123Z,99944.88
2023-02-27T01:06:48.373Z,99942.32
2023-02-27T01:07:51.215Z,99951.24
2023-02-27T01:08:56.219Z,99951.36
2023-02-27T01:10:01.785Z,99950.37
2023-02-27T01:11:05.109Z,99954.89
2023-02-27T01:12:07.835Z,99956.72
2023-02-27T01:13:11.392Z,99956.72
2023-02-27T01:14:14.523Z,99956.72
2023-02-27T01:15:21.721Z,99962.09
2023-02-27T01:16:24.397Z,99966.58
2023-02-27T01:17:27.362Z,99963.05
2023-02-27T01:18:29.805Z,99960.48
2023-02-27T01:19:32.173Z,99969.38
2023-02-27T01:20:34.708Z,99968.52
2023-02-27T01:21:37.706Z,99976.57
2023-02-27T01:22:43.556Z,99974.85
2023-02-27T01:23:47.917Z,99983.73
2023-02-27T01:24:51.693Z,99981.17
2023-02-27T01:25:54.319Z,99986.42
2023-02-27T01:26:57.087Z,99981.17
2023-02-27T01:28:00.365Z,99986.54
2023-02-27T01:29:06.334Z,99981.17
2023-02-27T01:30:11.435Z,99978.49
2023-02-27T01:31:14.766Z,99987.41
2023-02-27T01:32:18.430Z,99989.22
2023-02-27T01:33:22.755Z,99981.17
2023-02-27T01:34:25.290Z,99989.22
2023-02-27T01:35:27.945Z,99982.16
2023-02-27T01:36:31.427Z,99985.69
2023-02-27T01:37:34.072Z,99983.02
2023-02-27T01:38:36.607Z,99974.12
2023-02-27T01:39:41.246Z,99978.61
2023-02-27T01:40:44.181Z,99981.17
2023-02-27T01:41:47.041Z,99986.66
2023-02-27T01:42:49.776Z,99983.02
2023-02-27T01:43:55.827Z,99985.69
2023-02-27T01:45:26.982Z,99987.53
2023-02-27T01:46:30.934Z,99986.66
2023-02-27T01:47:33.708Z,99980.55
2023-02-27T01:48:37.158Z,99985.05
2023-02-27T01:49:39.656Z,99977.11
2023-02-27T01:50:57.806Z,99978.95
2023-02-27T01:52:05.420Z,99984.20
2023-02-27T01:53:08.025Z,99977.11
2023-02-27T01:54:10.695Z,99978.83
2023-02-27T01:55:13.598Z,99978.95
2023-02-27T01:56:28.192Z,99983.35
2023-02-27T01:57:30.708Z,99985.92
2023-02-27T01:58:33.950Z,99974.66
2023-02-27T01:59:39.437Z,99974.66
2023-02-27T02:00:43.338Z,99985.05
2023-02-27T02:01:47.521Z,99986.77
2023-02-27T02:04:14.924Z,99976.23
2023-02-27T02:05:17.381Z,99980.55
2023-02-27T02:06:20.502Z,99987.61
2023-02-27T02:07:24.779Z,99980.44
2023-02-27T02:08:28.463Z,99978.61
2023-02-27T02:09:31.259Z,99984.84
2023-02-27T02:10:35.061Z,99978.61
2023-02-27T02:11:39.129Z,99982.16
2023-02-27T02:12:41.945Z,99974.12
2023-02-27T02:13:45.516Z,99982.05
2023-02-27T02:14:47.819Z,99992.78
2023-02-27T02:16:01.058Z,99979.38
2023-02-27T02:17:17.099Z,99982.89
2023-02-27T02:19:55.249Z,99991.02
2023-02-27T02:21:06.816Z,99985.47
2023-02-27T02:22:42.947Z,99993.63
2023-02-27T02:24:23.817Z,99988.26
2023-02-27T02:25:53.475Z,99994.58
2023-02-27T02:27:27.439Z,99993.73
2023-02-27T02:30:33.235Z,99992.44
2023-02-27T02:32:02.571Z,99995.88
2023-02-27T02:33:13.032Z,99999.64
2023-02-27T02:34:40.540Z,100001.59
2023-02-27T02:36:08.514Z,100002.55
2023-02-27T02:37:17.770Z,100003.50
2023-02-27T02:38:37.083Z,100012.54
2023-02-27T02:40:10.715Z,100017.02
2023-02-27T02:41:26.360Z,100014.45
2023-02-27T02:42:35.813Z,100017.14
2023-02-27T02:43:48.830Z,100020.77
2023-02-27T02:45:10.029Z,100017.25
2023-02-27T02:46:16.896Z,100027.97
2023-02-27T02:49:12.046Z,100024.54
2023-02-27T02:50:29.768Z,100025.30
2023-02-27T02:53:01.527Z,100036.11
2023-02-27T02:54:30.922Z,100036.98
2023-02-27T02:55:47.163Z,100036.02
2023-02-27T02:57:08.965Z,100043.11
2023-02-27T02:59:43.862Z,100044.92
2023-02-27T03:02:03.328Z,100043.09
2023-02-27T03:03:14.712Z,100040.31
2023-02-27T03:04:41.776Z,100045.56
2023-02-27T03:07:09.837Z,100054.47
2023-02-27T03:08:16.111Z,100050.70
2023-02-27T03:09:28.464Z,100049.75
2023-02-27T03:10:41.519Z,100052.42
2023-02-27T03:11:47.593Z,100051.58
2023-02-27T03:12:53.915Z,100059.52
2023-02-27T03:14:03.233Z,100063.04
2023-02-27T03:15:20.341Z,100061.23
2023-02-27T03:17:49.165Z,100055.09
2023-02-27T03:19:07.551Z,100058.45
2023-02-27T03:21:50.902Z,100064.02
2023-02-27T03:22:55.631Z,100058.45
2023-02-27T03:23:59.766Z,100060.25
2023-02-27T03:25:05.769Z,100057.56
2023-02-27T03:26:09.701Z,100062.92
2023-02-27T03:27:12.796Z,100071.74
2023-02-27T03:28:18.607Z,100065.50
2023-02-27T03:29:24.952Z,100069.91
2023-02-27T03:31:59.704Z,100064.63
2023-02-27T03:33:08.936Z,100067.11
2023-02-27T03:34:21.283Z,100075.16
2023-02-27T03:36:49.062Z,100070.00
2023-02-27T03:37:58.430Z,100074.31
2023-02-27T03:39:13.750Z,100075.16
2023-02-27T03:40:30.158Z,100076.99
2023-02-27T03:41:46.546Z,100075.27
2023-02-27T03:44:26.798Z,100085.25
2023-02-27T03:45:49.928Z,100083.31
2023-02-27T03:46:54.165Z,100090.52
2023-02-27T03:47:57.981Z,100085.27
2023-02-27T03:49:00.461Z,100087.95
2023-02-27T03:50:04.479Z,100095.11
2023-02-27T03:51:07.137Z,100088.91
2023-02-27T03:52:10.848Z,100089.64
2023-02-27T03:53:23.227Z,100084.38
2023-02-27T03:54:27.438Z,100090.52
2023-02-27T03:55:35.706Z,100085.15
2023-02-27T03:56:44.488Z,100092.20
2023-02-27T03:57:47.806Z,100088.68
2023-02-27T03:58:50.846Z,100089.52
2023-02-27T03:59:54.767Z,100084.16
2023-02-27T04:00:58.835Z,100091.25
2023-02-27T04:02:02.960Z,100087.61
2023-02-27T04:03:05.918Z,100094.81
2023-02-27T04:04:14.414Z,100091.25
2023-02-27T04:05:35.213Z,100090.30
2023-02-27T04:07:05.356Z,100090.30
2023-02-27T04:08:27.139Z,100099.19
2023-02-27T04:11:29.235Z,100099.62
2023-02-27T04:12:56.044Z,100100.36
2023-02-27T04:15:40.406Z,100106.16
2023-02-27T04:16:49.998Z,100107.78
2023-02-27T04:19:39.617Z,100108.11
2023-02-27T04:21:01.012Z,100113.38
2023-02-27T04:22:19.471Z,100118.73
2023-02-27T04:23:39.938Z,100115.17
2023-02-27T04:26:22.253Z,100126.00
2023-02-27T04:28:55.886Z,100120.75
2023-02-27T04:30:11.824Z,100117.01
2023-02-27T04:31:39.369Z,100117.01
2023-02-27T04:34:08.687Z,100118.95
2023-02-27T04:36:33.303Z,100117.11
2023-02-27T04:37:39.522Z,100127.73
2023-02-27T04:38:45.496Z,100125.90
2023-02-27T04:39:54.702Z,100129.46
2023-02-27T04:41:02.810Z,100132.03
2023-02-27T04:42:11.349Z,100130.20
2023-02-27T04:43:14.438Z,100142.65
2023-02-27T04:44:18.406Z,100138.13
2023-02-27T04:45:23.471Z,100149.73
2023-02-27T04:46:27.208Z,100144.38
2023-02-27T04:47:36.532Z,100147.91
2023-02-27T04:50:29.058Z,100143.49
2023-02-27T04:52:55.694Z,100145.22
2023-02-27T04:54:00.834Z,100149.52
2023-02-27T04:56:26.868Z,100150.58
2023-02-27T04:57:41.588Z,100150.48
2023-02-27T04:58:50.008Z,100163.78
2023-02-27T04:59:54.562Z,100162.93
2023-02-27T05:01:01.924Z,100161.94
2023-02-27T05:02:08.362Z,100162.81
2023-02-27T05:03:13.531Z,100165.50
2023-02-27T05:04:17.841Z,100171.71
2023-02-27T05:06:36.081Z,100168.30
2023-02-27T05:07:41.328Z,100170.75
2023-02-27T05:09:02.855Z,100178.80
2023-02-27T05:10:07.825Z,100180.64
2023-02-27T05:11:25.554Z,100185.89
2023-02-27T05:12:35.304Z,100184.05
2023-02-27T05:15:13.646Z,100186.00
2023-02-27T05:16:38.295Z,100189.42
2023-02-27T05:17:45.345Z,100193.94
2023-02-27T05:18:48.854Z,100197.47
2023-02-27T05:19:51.303Z,100195.74
2023-02-27T05:22:46.371Z,100200.38
2023-02-27T05:23:56.367Z,100203.79
2023-02-27T05:25:03.496Z,100209.16
2023-02-27T05:26:29.590Z,100210.98
2023-02-27T05:27:41.591Z,100217.20
2023-02-27T05:28:53.877Z,100214.52
2023-02-27T05:30:06.447Z,100215.40
2023-02-27T05:31:28.537Z,100214.63
2023-02-27T05:33:58.588Z,100218.42
2023-02-27T05:35:11.250Z,100225.36
2023-02-27T05:36:29.655Z,100225.36
2023-02-27T05:37:43.340Z,100233.41
2023-02-27T05:38:51.990Z,100228.03
2023-02-27T05:39:55.857Z,100228.99
2023-02-27T05:41:12.084Z,100225.36
2023-02-27T05:42:30.067Z,100231.59
2023-02-27T05:43:39.511Z,100227.19
2023-02-27T05:44:44.503Z,100231.59
2023-02-27T05:45:50.098Z,100237.81
2023-02-27T05:46:55.738Z,100229.77
2023-02-27T05:48:04.941Z,100228.81
2023-02-27T05:49:26.900Z,100234.17
2023-02-27T05:50:31.211Z,100235.02
2023-02-27T05:51:35.227Z,100235.02
2023-02-27T05:52:38.779Z,100235.02
2023-02-27T05:53:44.883Z,100219.55
2023-02-27T05:54:53.171Z,100219.55
2023-02-27T05:55:58.749Z,100242.95
2023-02-27T05:57:02.474Z,100244.69
2023-02-27T05:58:26.479Z,100242.85
2023-02-27T05:59:51.550Z,100240.06
2023-02-27T06:00:59.048Z,100233.84
2023-02-27T06:02:02.652Z,100245.42
2023-02-27T06:03:06.531Z,100247.26
2023-02-27T06:04:10.063Z,100238.36
2023-02-27T06:05:16.415Z,100249.94
2023-02-27T06:06:20.214Z,100241.89
2023-02-27T06:07:23.953Z,100248.11
2023-02-27T06:08:26.757Z,100253.47
2023-02-27T06:09:29.138Z,100247.16
2023-02-27T06:10:34.846Z,100250.68
2023-02-27T06:11:38.017Z,100251.56
2023-02-27T06:12:41.724Z,100260.45
2023-02-27T06:13:44.986Z,100260.45
2023-02-27T06:14:47.581Z,100258.66
2023-02-27T06:15:49.900Z,100260.45
2023-02-27T06:16:52.732Z,100267.55
2023-02-27T06:17:55.911Z,100267.55
2023-02-27T06:18:58.344Z,100263.91
2023-02-27T06:20:01.839Z,100257.56
2023-02-27T06:21:05.293Z,100259.28
2023-02-27T06:22:11.171Z,100256.60
2023-02-27T06:23:13.847Z,100265.53
2023-02-27T06:24:16.421Z,100258.33
2023-02-27T06:25:21.507Z,100268.11
2023-02-27T06:26:24.127Z,100264.55
2023-02-27T06:27:27.200Z,100270.78
2023-02-27T06:28:29.827Z,100270.78
2023-02-27T06:29:33.133Z,100271.63
2023-02-27T06:30:37.089Z,100269.80
2023-02-27T06:31:39.806Z,100268.00
2023-02-27T06:32:42.254Z,100269.80
2023-02-27T06:33:45.137Z,100266.16
2023-02-27T06:34:48.320Z,100267.12
2023-02-27T06:35:52.238Z,100268.84
2023-02-27T06:36:55.022Z,100272.41
2023-02-27T06:37:58.687Z,100265.20
2023-02-27T06:39:01.398Z,100259.84
2023-02-27T06:40:07.905Z,100258.98
2023-02-27T06:41:10.407Z,100258.98
2023-02-27T06:42:13.459Z,100264.36
2023-02-27T06:43:16.057Z,100270.57
2023-02-27T06:44:19.662Z,100266.94
2023-02-27T06:45:24.713Z,100258.00
2023-02-27T06:46:28.048Z,100261.56
2023-02-27T06:47:31.177Z,100262.52
2023-02-27T06:48:33.656Z,100261.67
2023-02-27T06:49:36.640Z,100260.69
2023-02-27T06:50:39.333Z,100264.98
2023-02-27T06:51:45.003Z,100261.56
2023-02-27T06:52:47.461Z,100249.51
2023-02-27T06:53:49.927Z,100269.61
2023-02-27T06:54:52.824Z,100261.56
2023-02-27T06:55:55.345Z,100264.25
2023-02-27T06:56:59.768Z,100268.73
2023-02-27T06:58:02.504Z,100272.30
2023-02-27T06:59:05.331Z,100263.37
2023-02-27T07:00:11.368Z,100270.57
2023-02-27T07:01:14.065Z,100270.57
2023-02-27T07:02:17.202Z,100274.10
2023-02-27T07:03:20.181Z,100281.30
2023-02-27T07:04:23.226Z,100283.14
2023-02-27T07:05:26.210Z,100274.10
2023-02-27T07:07:32.666Z,100292.77
2023-02-27T07:07:38.027Z,100282.05
2023-02-27T07:09:00.931Z,100294.72
2023-02-27T07:09:43.641Z,100287.52
2023-02-27T07:10:48.421Z,100283.98
2023-02-27T07:11:51.004Z,100289.35
2023-02-27T07:12:53.776Z,100292.88
2023-02-27T07:13:56.296Z,100284.83
2023-02-27T07:14:58.973Z,100283.14
2023-02-27T07:16:01.958Z,100291.19
2023-02-27T07:17:04.965Z,100284.83
2023-02-27T07:18:08.080Z,100283.98
2023-02-27T07:19:12.151Z,100288.50
2023-02-27T07:20:14.861Z,100288.50
2023-02-27T07:21:17.911Z,100288.50
2023-02-27T07:22:20.509Z,100293.88
2023-02-27T07:23:23.027Z,100297.40
2023-02-27T07:24:25.643Z,100299.23
2023-02-27T07:25:29.532Z,100304.60
2023-02-27T07:26:32.234Z,100300.08
2023-02-27T07:27:34.679Z,100301.36
2023-02-27T07:28:38.089Z,100301.36
2023-02-27T07:29:41.007Z,100311.66
2023-02-27T07:30:45.175Z,100311.66
2023-02-27T07:31:48.933Z,100311.56
2023-02-27T07:32:52.203Z,100310.81
2023-02-27T07:33:54.665Z,100312.55
2023-02-27T07:34:58.400Z,100316.08
2023-02-27T07:36:00.782Z,100319.72
2023-02-27T07:37:04.485Z,100322.39
2023-02-27T07:38:07.486Z,100322.39
2023-02-27T07:39:11.751Z,100319.72
2023-02-27T07:40:14.968Z,100317.03
2023-02-27T07:41:29.626Z,100316.18
2023-02-27T07:42:22.028Z,100320.70
2023-02-27T07:43:25.240Z,100326.91
2023-02-27T07:44:28.216Z,100321.66
2023-02-27T07:45:30.911Z,100324.23
2023-02-27T07:46:33.885Z,100319.81
2023-02-27T07:47:36.644Z,100310.81
2023-02-27T07:48:40.845Z,100315.34
2023-02-27T07:49:43.574Z,100315.34
2023-02-27T07:50:46.167Z,100316.18
2023-02-27T07:51:48.853Z,100318.86
2023-02-27T07:52:51.539Z,100318.86
2023-02-27T07:53:57.796Z,100315.34
2023-02-27T07:55:00.848Z,100316.18
2023-02-27T07:56:04.192Z,100314.45
2023-02-27T07:57:06.717Z,100313.50
2023-02-27T07:58:09.709Z,100321.55
2023-02-27T07:59:12.544Z,100326.91
2023-02-27T08:00:15.891Z,100320.70
2023-02-27T08:01:19.492Z,100327.77
2023-02-27T08:02:22.506Z,100326.06
2023-02-27T08:03:25.400Z,100328.75
2023-02-27T08:04:28.619Z,100330.45
2023-02-27T08:05:31.199Z,100333.13
2023-02-27T08:06:34.024Z,100334.01
2023-02-27T08:07:36.944Z,100334.01
2023-02-27T08:08:39.545Z,100333.02
2023-02-27T08:09:42.131Z,100331.22
2023-02-27T08:10:45.543Z,100331.22
2023-02-27T08:11:49.256Z,100327.66
2023-02-27T08:12:53.539Z,100325.85
2023-02-27T08:14:00.459Z,100326.80
2023-02-27T08:15:01.095Z,100324.97
2023-02-27T08:16:04.797Z,100331.22
2023-02-27T08:17:09.227Z,100331.33
2023-02-27T08:18:11.969Z,100334.01
2023-02-27T08:19:15.073Z,100335.70
2023-02-27T08:20:20.918Z,100342.91
2023-02-27T08:21:23.540Z,100335.81
2023-02-27T08:22:26.125Z,100342.05
2023-02-27T08:23:29.539Z,100342.05
2023-02-27T08:24:32.114Z,100337.64
2023-02-27T08:25:34.481Z,100343.86
2023-02-27T08:26:37.856Z,100341.17
2023-02-27T08:27:40.493Z,100343.64
2023-02-27T08:28:43.504Z,100340.12
2023-02-27T08:29:46.121Z,100336.59
2023-02-27T08:30:48.892Z,100339.16
2023-02-27T08:31:51.392Z,100340.12
2023-02-27T08:32:55.790Z,100339.27
2023-02-27T08:34:09.372Z,100342.05
2023-02-27T08:35:03.743Z,100328.48
2023-02-27T08:36:07.554Z,100328.48
2023-02-27T08:37:10.866Z,100343.12
2023-02-27T08:38:14.282Z,100344.07
2023-02-27T08:39:18.152Z,100342.45
2023-02-27T08:40:21.377Z,100348.77
2023-02-27T08:41:23.977Z,100345.24
2023-02-27T08:42:26.993Z,100348.87
2023-02-27T08:43:30.782Z,100348.87
2023-02-27T08:44:33.740Z,100343.62
2023-02-27T08:45:37.130Z,100347.25
2023-02-27T08:46:39.793Z,100339.20
2023-02-27T08:47:45.139Z,100348.34
2023-02-27T08:48:48.507Z,100348.34
2023-02-27T08:49:51.094Z,100345.77
2023-02-27T08:50:57.470Z,100345.77
2023-02-27T08:52:00.922Z,100349.41
2023-02-27T08:53:03.854Z,100349.52
2023-02-27T08:54:07.436Z,100344.14
2023-02-27T08:55:10.515Z,100355.83
2023-02-27T08:56:14.909Z,100357.66
2023-02-27T08:57:17.486Z,100356.78
2023-02-27T08:58:20.507Z,100355.05
2023-02-27T08:59:23.326Z,100358.72
2023-02-27T09:00:26.923Z,100353.36
2023-02-27T09:01:32.342Z,100348.09
2023-02-27T09:02:35.125Z,100354.31
2023-02-27T09:03:39.018Z,100348.09
2023-02-27T09:04:41.843Z,100356.25
2023-02-27T09:05:44.367Z,100357.09
2023-02-27T09:06:47.538Z,100356.25
2023-02-27T09:07:50.472Z,100368.78
2023-02-27T09:08:53.175Z,100364.37
2023-02-27T09:09:56.434Z,100364.37
2023-02-27T09:10:59.538Z,100368.03
2023-02-27T09:12:03.017Z,100363.52
2023-02-27T09:13:05.550Z,100355.11
2023-02-27T09:14:08.223Z,100355.11
2023-02-27T09:15:11.492Z,100363.63
2023-02-27T09:16:15.447Z,100362.77
2023-02-27T09:17:19.403Z,100366.30
2023-02-27T09:18:22.906Z,100357.41
2023-02-27T09:19:26.427Z,100360.09
2023-02-27T09:20:35.381Z,100355.58
2023-02-27T09:21:38.198Z,100356.42
2023-02-27T09:22:42.342Z,100359.00
2023-02-27T09:23:45.483Z,100353.56
2023-02-27T09:24:48.760Z,100365.14
2023-02-27T09:25:51.634Z,100355.27
2023-02-27T09:26:54.481Z,100356.99
2023-02-27T09:27:57.793Z,100360.41
2023-02-27T09:29:00.632Z,100362.14
2023-02-27T09:30:04.576Z,100361.09
2023-02-27T09:31:07.837Z,100361.09
2023-02-27T09:32:10.750Z,100359.25
2023-02-27T09:33:14.726Z,100358.30
2023-02-27T09:34:17.499Z,100348.34
2023-02-27T09:35:20.123Z,100354.56
2023-02-27T09:36:23.895Z,100350.05
2023-02-27T09:37:27.788Z,100349.09
2023-02-27T09:38:30.768Z,100344.57
2023-02-27T09:39:33.350Z,100351.66
2023-02-27T09:40:41.096Z,100338.57
2023-02-27T09:41:59.348Z,100338.57
2023-02-27T09:43:04.982Z,100355.23
2023-02-27T09:44:17.344Z,100355.23
2023-02-27T09:45:29.532Z,100355.23
2023-02-27T09:46:32.100Z,100369.59
2023-02-27T09:47:40.793Z,100355.30
2023-02-27T09:50:20.322Z,100359.22
2023-02-27T09:51:23.038Z,100363.45
2023-02-27T09:52:27.573Z,100363.45
2023-02-27T09:53:34.440Z,100364.44
2023-02-27T09:54:37.110Z,100357.34
2023-02-27T09:55:40.245Z,100362.71
2023-02-27T09:56:49.263Z,100353.81
2023-02-27T09:57:55.868Z,100362.71
2023-02-27T09:59:04.699Z,100364.44
2023-02-27T10:00:18.600Z,100367.87
2023-02-27T10:03:05.978Z,100368.89
2023-02-27T10:06:18.264Z,100366.10
2023-02-27T10:07:40.155Z,100369.49
2023-02-27T10:10:06.231Z,100366.20
2023-02-27T10:11:11.089Z,100367.77
2023-02-27T10:12:20.358Z,100373.13
2023-02-27T10:14:01.740Z,100370.44
2023-02-27T10:16:34.284Z,100376.72
2023-02-27T10:19:17.344Z,100375.00
2023-02-27T10:20:24.038Z,100375.70
2023-02-27T10:21:36.904Z,100382.91
2023-02-27T10:22:42.574Z,100381.07
2023-02-27T10:25:30.290Z,100378.45
2023-02-27T10:26:28.316Z,100383.64
2023-02-27T10:27:30.918Z,100387.21
2023-02-27T10:28:34.154Z,100384.53
2023-02-27T10:30:56.756Z,100390.78
2023-02-27T10:32:10.112Z,100387.00
2023-02-27T10:33:28.144Z,100395.90
2023-02-27T10:34:31.838Z,100394.94
2023-02-27T10:35:36.535Z,100395.83
2023-02-27T10:36:41.111Z,100401.19
2023-02-27T10:37:50.161Z,100399.36
2023-02-27T10:39:02.621Z,100394.94
2023-02-27T10:40:06.644Z,100390.45
2023-02-27T10:41:12.806Z,100394.94
2023-02-27T10:42:16.087Z,100387.00
2023-02-27T10:43:18.742Z,100394.80
2023-02-27T10:44:23.526Z,100393.28
2023-02-27T10:45:27.014Z,100396.81
2023-02-27T10:46:31.851Z,100394.13
2023-02-27T10:47:37.121Z,100398.54
2023-02-27T10:48:40.950Z,100398.64
2023-02-27T10:49:44.830Z,100397.80
2023-02-27T10:50:53.409Z,100392.42
2023-02-27T10:52:10.838Z,100403.16
2023-02-27T10:53:19.122Z,100405.84
2023-02-27T10:54:25.385Z,100402.27
2023-02-27T10:55:32.938Z,100397.90
2023-02-27T10:56:37.216Z,100407.64
2023-02-27T10:57:41.639Z,100402.38
2023-02-27T10:58:45.596Z,100401.53
2023-02-27T10:59:54.139Z,100400.65
2023-02-27T11:00:59.518Z,100394.44
2023-02-27T11:02:09.037Z,100399.80
2023-02-27T11:03:23.922Z,100398.07
2023-02-27T11:04:33.518Z,100405.27
2023-02-27T11:05:36.624Z,100394.55
2023-02-27T11:06:40.903Z,100400.01
2023-02-27T11:07:43.557Z,100385.18
2023-02-27T11:08:45.910Z,100385.18
2023-02-27T11:09:59.918Z,100392.91
2023-02-27T11:11:11.248Z,100386.70
2023-02-27T11:12:29.202Z,100392.06
2023-02-27T11:13:37.621Z,100385.82
2023-02-27T11:14:59.566Z,100385.08
2023-02-27T11:16:14.312Z,100384.23
2023-02-27T11:17:32.310Z,100386.91
2023-02-27T11:18:36.120Z,100394.18
2023-02-27T11:19:38.868Z,100381.72
2023-02-27T11:20:43.388Z,100392.55
2023-02-27T11:23:23.847Z,100395.49
2023-02-27T11:24:28.451Z,100394.48
2023-02-27T11:25:31.438Z,100389.13
2023-02-27T11:26:41.142Z,100399.05
2023-02-27T11:27:45.619Z,100400.80
2023-02-27T11:29:08.640Z,100397.17
2023-02-27T11:30:27.633Z,100396.19
2023-02-27T11:31:31.251Z,100395.23
2023-02-27T11:32:42.803Z,100398.80
2023-02-27T11:33:55.029Z,100404.91
2023-02-27T11:34:57.732Z,100402.22
2023-02-27T11:36:00.528Z,100407.48
2023-02-27T11:38:34.812Z,100402.27
2023-02-27T11:39:40.295Z,100398.48
2023-02-27T11:42:32.843Z,100403.05
2023-02-27T11:43:45.505Z,100398.38
2023-02-27T11:44:55.737Z,100393.87
2023-02-27T11:46:33.151Z,100395.70
2023-02-27T11:47:15.055Z,100398.38
2023-02-27T11:48:42.101Z,100401.06
2023-02-27T11:50:22.017Z,100400.96
2023-02-27T11:51:39.852Z,100397.43
2023-02-27T11:53:11.520Z,100402.80
2023-02-27T11:55:52.255Z,100398.74
2023-02-27T11:58:21.889Z,100396.27
2023-02-27T12:01:00.199Z,100393.69
2023-02-27T12:02:26.615Z,100398.80
2023-02-27T12:03:36.082Z,100399.75
2023-02-27T12:04:51.739Z,100393.33
2023-02-27T12:05:58.557Z,100398.70
2023-02-27T12:07:22.837Z,100393.23
2023-02-27T12:08:45.959Z,100403.95
2023-02-27T12:10:08.751Z,100396.66
2023-02-27T12:11:35.523Z,100393.02
2023-02-27T12:12:45.014Z,100401.91
2023-02-27T12:13:52.550Z,100399.23
2023-02-27T12:14:59.122Z,100401.06
2023-02-27T12:16:22.895Z,100398.38
2023-02-27T12:17:39.683Z,100399.23
2023-02-27T12:18:47.311Z,100400.11
2023-02-27T12:19:56.319Z,100404.52
2023-02-27T12:21:20.958Z,100405.38
2023-02-27T12:22:30.362Z,100402.59
2023-02-27T12:23:39.264Z,100406.22
2023-02-27T12:26:24.529Z,100402.73
2023-02-27T12:27:43.858Z,100405.16
2023-02-27T12:30:08.496Z,100404.47
2023-02-27T12:31:33.003Z,100405.95
2023-02-27T12:34:28.172Z,100404.26
2023-02-27T12:35:34.609Z,100415.58
2023-02-27T12:36:38.923Z,100418.27
2023-02-27T12:37:41.834Z,100410.22
2023-02-27T12:38:45.322Z,100420.00
2023-02-27T12:39:49.660Z,100424.41
2023-02-27T12:41:12.904Z,100417.20
2023-02-27T12:42:40.593Z,100426.14
2023-02-27T12:43:46.990Z,100408.21
2023-02-27T12:45:27.047Z,100417.98
2023-02-27T12:48:32.756Z,100416.41
2023-02-27T12:49:54.562Z,100423.35
2023-02-27T12:51:06.841Z,100420.77
2023-02-27T12:52:19.635Z,100423.45
2023-02-27T12:53:28.627Z,100419.89
2023-02-27T12:54:57.588Z,100420.88
2023-02-27T12:56:06.389Z,100420.88
2023-02-27T12:57:21.441Z,100427.09
2023-02-27T12:58:33.576Z,100424.41
2023-02-27T12:59:55.371Z,100426.24
2023-02-27T13:02:22.130Z,100425.62
2023-02-27T13:04:48.620Z,100435.61
2023-02-27T13:06:04.755Z,100435.72
2023-02-27T13:08:47.276Z,100439.72
2023-02-27T13:09:58.932Z,100442.14
2023-02-27T13:11:22.289Z,100434.09
2023-02-27T13:12:40.532Z,100435.83
2023-02-27T13:14:12.814Z,100434.98
2023-02-27T13:15:27.044Z,100437.66
2023-02-27T13:16:35.215Z,100431.41
2023-02-27T13:17:40.676Z,100437.66
2023-02-27T13:19:03.982Z,100434.09
2023-02-27T13:20:23.228Z,100438.61
2023-02-27T13:21:30.458Z,100439.46
2023-02-27T13:24:28.494Z,100436.09
2023-02-27T13:25:31.369Z,100443.87
2023-02-27T13:26:37.365Z,100449.34
2023-02-27T13:27:49.644Z,100442.14
2023-02-27T13:28:52.758Z,100447.44
2023-02-27T13:30:04.883Z,100445.61
2023-02-27T13:31:10.973Z,100444.55
2023-02-27T13:32:43.051Z,100439.08
2023-02-27T13:33:49.257Z,100436.30
2023-02-27T13:36:29.405Z,100436.25
2023-02-27T13:37:51.624Z,100435.88
2023-02-27T13:38:55.423Z,100435.78
2023-02-27T13:39:59.821Z,100436.56
2023-02-27T13:42:48.158Z,100443.59
2023-02-27T13:43:53.603Z,100446.87
2023-02-27T13:46:26.653Z,100444.16
2023-02-27T13:47:32.995Z,100435.86
2023-02-27T13:48:47.650Z,100442.85
2023-02-27T13:49:50.176Z,100441.87
2023-02-27T13:50:54.117Z,100451.64
2023-02-27T13:51:59.167Z,100447.06
2023-02-27T13:53:08.249Z,100437.06
2023-02-27T13:54:19.456Z,100445.02
2023-02-27T13:55:31.416Z,100450.27
2023-02-27T13:56:36.332Z,100444.80
2023-02-27T13:57:42.671Z,100453.63
2023-02-27T14:00:27.360Z,100443.78
2023-02-27T14:01:34.459Z,100449.78
2023-02-27T14:03:04.806Z,100451.52
2023-02-27T14:04:07.327Z,100444.31
2023-02-27T14:05:11.877Z,100448.72
2023-02-27T14:06:15.073Z,100456.67
2023-02-27T14:07:20.821Z,100457.52
2023-02-27T14:08:32.190Z,100451.20
2023-02-27T14:09:37.145Z,100448.51
2023-02-27T14:10:41.688Z,100450.23
2023-02-27T14:12:00.612Z,100446.67
2023-02-27T14:13:03.802Z,100448.41
2023-02-27T14:14:09.159Z,100456.35